sensor_id;sensor_type;location;lat;lon;timestamp;temperature;humidity
80412;SHT30;69749;42.684;23.360;2023-09-07T00:00:36;21.53;62.31
80412;SHT30;69749;42.684;23.360;2023-09-07T00:03:01;21.53;62.50
80412;SHT30;69749;42.684;23.360;2023-09-07T00:05:27;21.47;62.76
80412;SHT30;69749;42.684;23.360;2023-09-07T00:07:52;21.34;63.19
80412;SHT30;69749;42.684;23.360;2023-09-07T00:10:18;21.36;63.46
80412;SHT30;69749;42.684;23.360;2023-09-07T00:12:43;21.23;64.19
80412;SHT30;69749;42.684;23.360;2023-09-07T00:15:09;21.24;64.74
80412;SHT30;69749;42.684;23.360;2023-09-07T00:17:36;21.24;64.76
80412;SHT30;69749;42.684;23.360;2023-09-07T00:20:02;21.22;65.37
80412;SHT30;69749;42.684;23.360;2023-09-07T00:22:35;21.24;65.53
80412;SHT30;69749;42.684;23.360;2023-09-07T00:25:01;21.03;66.45
80412;SHT30;69749;42.684;23.360;2023-09-07T00:27:26;21.14;66.29
80412;SHT30;69749;42.684;23.360;2023-09-07T00:29:52;21.04;66.68
80412;SHT30;69749;42.684;23.360;2023-09-07T00:32:17;21.09;66.71
80412;SHT30;69749;42.684;23.360;2023-09-07T00:34:42;21.07;66.90
80412;SHT30;69749;42.684;23.360;2023-09-07T00:37:08;20.98;66.99
80412;SHT30;69749;42.684;23.360;2023-09-07T00:39:33;21.02;66.99
80412;SHT30;69749;42.684;23.360;2023-09-07T00:41:58;20.99;66.76
80412;SHT30;69749;42.684;23.360;2023-09-07T00:44:24;20.98;66.75
80412;SHT30;69749;42.684;23.360;2023-09-07T00:46:50;20.96;66.75
80412;SHT30;69749;42.684;23.360;2023-09-07T00:49:15;20.96;66.49
80412;SHT30;69749;42.684;23.360;2023-09-07T00:51:40;20.96;66.48
80412;SHT30;69749;42.684;23.360;2023-09-07T00:54:06;20.68;67.30
80412;SHT30;69749;42.684;23.360;2023-09-07T00:56:32;20.65;67.49
80412;SHT30;69749;42.684;23.360;2023-09-07T00:58:58;20.71;67.55
80412;SHT30;69749;42.684;23.360;2023-09-07T01:01:26;20.71;67.39
80412;SHT30;69749;42.684;23.360;2023-09-07T01:03:52;20.76;67.31
80412;SHT30;69749;42.684;23.360;2023-09-07T01:06:39;20.78;67.37
80412;SHT30;69749;42.684;23.360;2023-09-07T01:09:17;20.76;67.58
80412;SHT30;69749;42.684;23.360;2023-09-07T01:11:44;20.72;67.72
80412;SHT30;69749;42.684;23.360;2023-09-07T01:14:09;20.62;68.19
80412;SHT30;69749;42.684;23.360;2023-09-07T01:16:35;20.62;68.12
80412;SHT30;69749;42.684;23.360;2023-09-07T01:19:05;20.54;68.43
80412;SHT30;69749;42.684;23.360;2023-09-07T01:21:34;20.49;68.49
80412;SHT30;69749;42.684;23.360;2023-09-07T01:24:01;20.47;68.72
80412;SHT30;69749;42.684;23.360;2023-09-07T01:26:27;20.55;68.53
80412;SHT30;69749;42.684;23.360;2023-09-07T01:28:53;20.58;68.54
80412;SHT30;69749;42.684;23.360;2023-09-07T01:31:18;20.49;68.80
80412;SHT30;69749;42.684;23.360;2023-09-07T01:33:44;20.56;68.72
80412;SHT30;69749;42.684;23.360;2023-09-07T01:36:09;20.56;68.74
80412;SHT30;69749;42.684;23.360;2023-09-07T01:38:35;20.62;68.61
80412;SHT30;69749;42.684;23.360;2023-09-07T01:41:00;20.69;68.53
80412;SHT30;69749;42.684;23.360;2023-09-07T01:43:46;20.71;68.52
80412;SHT30;69749;42.684;23.360;2023-09-07T01:46:25;20.68;68.82
80412;SHT30;69749;42.684;23.360;2023-09-07T01:51:56;20.48;69.54
80412;SHT30;69749;42.684;23.360;2023-09-07T01:54:21;20.51;69.43
80412;SHT30;69749;42.684;23.360;2023-09-07T01:56:47;20.27;70.02
80412;SHT30;69749;42.684;23.360;2023-09-07T01:59:12;20.24;70.46
80412;SHT30;69749;42.684;23.360;2023-09-07T02:02:07;20.25;70.42
80412;SHT30;69749;42.684;23.360;2023-09-07T02:04:44;20.38;69.94
80412;SHT30;69749;42.684;23.360;2023-09-07T02:07:33;20.37;69.93
80412;SHT30;69749;42.684;23.360;2023-09-07T02:10:02;20.41;69.68
80412;SHT30;69749;42.684;23.360;2023-09-07T02:12:28;20.48;69.51
80412;SHT30;69749;42.684;23.360;2023-09-07T02:14:54;20.40;69.73
80412;SHT30;69749;42.684;23.360;2023-09-07T02:17:20;20.34;69.98
80412;SHT30;69749;42.684;23.360;2023-09-07T02:20:17;20.31;70.05
80412;SHT30;69749;42.684;23.360;2023-09-07T02:22:53;20.30;70.13
80412;SHT30;69749;42.684;23.360;2023-09-07T02:25:18;20.10;70.80
80412;SHT30;69749;42.684;23.360;2023-09-07T02:27:43;20.17;70.67
80412;SHT30;69749;42.684;23.360;2023-09-07T02:30:09;20.12;70.91
80412;SHT30;69749;42.684;23.360;2023-09-07T02:32:34;20.14;70.99
80412;SHT30;69749;42.684;23.360;2023-09-07T02:35:21;20.10;71.27
80412;SHT30;69749;42.684;23.360;2023-09-07T02:37:48;20.12;71.18
80412;SHT30;69749;42.684;23.360;2023-09-07T02:40:13;20.10;71.27
80412;SHT30;69749;42.684;23.360;2023-09-07T02:42:41;20.06;71.47
80412;SHT30;69749;42.684;23.360;2023-09-07T02:45:07;20.13;71.22
80412;SHT30;69749;42.684;23.360;2023-09-07T02:47:47;20.13;71.27
80412;SHT30;69749;42.684;23.360;2023-09-07T02:53:37;20.21;70.98
80412;SHT30;69749;42.684;23.360;2023-09-07T02:56:02;20.17;71.10
80412;SHT30;69749;42.684;23.360;2023-09-07T02:58:29;20.06;71.45
80412;SHT30;69749;42.684;23.360;2023-09-07T03:00:59;19.89;72.18
80412;SHT30;69749;42.684;23.360;2023-09-07T03:03:25;19.77;72.52
80412;SHT30;69749;42.684;23.360;2023-09-07T03:05:50;19.87;72.25
80412;SHT30;69749;42.684;23.360;2023-09-07T03:08:16;19.92;72.35
80412;SHT30;69749;42.684;23.360;2023-09-07T03:10:42;19.90;72.45
80412;SHT30;69749;42.684;23.360;2023-09-07T03:13:09;19.92;72.61
80412;SHT30;69749;42.684;23.360;2023-09-07T03:15:34;19.79;73.11
80412;SHT30;69749;42.684;23.360;2023-09-07T03:18:00;19.86;73.23
80412;SHT30;69749;42.684;23.360;2023-09-07T03:20:28;19.85;73.57
80412;SHT30;69749;42.684;23.360;2023-09-07T03:22:54;19.76;73.97
80412;SHT30;69749;42.684;23.360;2023-09-07T03:25:21;19.76;74.22
80412;SHT30;69749;42.684;23.360;2023-09-07T03:27:46;19.80;74.25
80412;SHT30;69749;42.684;23.360;2023-09-07T03:30:12;19.80;74.28
80412;SHT30;69749;42.684;23.360;2023-09-07T03:32:37;19.79;74.28
80412;SHT30;69749;42.684;23.360;2023-09-07T03:35:04;19.82;74.12
80412;SHT30;69749;42.684;23.360;2023-09-07T03:37:45;19.87;74.19
80412;SHT30;69749;42.684;23.360;2023-09-07T03:40:11;19.92;74.11
80412;SHT30;69749;42.684;23.360;2023-09-07T03:42:36;19.96;74.15
80412;SHT30;69749;42.684;23.360;2023-09-07T03:45:02;20.04;73.64
80412;SHT30;69749;42.684;23.360;2023-09-07T03:47:28;20.06;73.69
80412;SHT30;69749;42.684;23.360;2023-09-07T03:50:15;20.09;73.46
80412;SHT30;69749;42.684;23.360;2023-09-07T03:52:47;20.12;73.55
80412;SHT30;69749;42.684;23.360;2023-09-07T03:55:12;20.13;73.32
80412;SHT30;69749;42.684;23.360;2023-09-07T03:57:38;20.12;73.50
80412;SHT30;69749;42.684;23.360;2023-09-07T04:03:09;20.12;73.66
80412;SHT30;69749;42.684;23.360;2023-09-07T04:05:36;20.12;73.49
80412;SHT30;69749;42.684;23.360;2023-09-07T04:08:07;20.10;73.60
80412;SHT30;69749;42.684;23.360;2023-09-07T04:10:33;20.06;73.93
80412;SHT30;69749;42.684;23.360;2023-09-07T04:12:58;20.07;73.66
80412;SHT30;69749;42.684;23.360;2023-09-07T04:15:26;20.03;74.01
80412;SHT30;69749;42.684;23.360;2023-09-07T04:17:56;19.96;74.06
80412;SHT30;69749;42.684;23.360;2023-09-07T04:20:22;19.98;74.01
80412;SHT30;69749;42.684;23.360;2023-09-07T04:22:49;19.92;73.97
80412;SHT30;69749;42.684;23.360;2023-09-07T04:25:15;19.94;73.90
80412;SHT30;69749;42.684;23.360;2023-09-07T04:27:40;19.89;74.01
80412;SHT30;69749;42.684;23.360;2023-09-07T04:30:32;19.85;74.28
80412;SHT30;69749;42.684;23.360;2023-09-07T04:32:58;19.75;74.27
80412;SHT30;69749;42.684;23.360;2023-09-07T04:35:29;19.65;74.76
80412;SHT30;69749;42.684;23.360;2023-09-07T04:37:55;19.65;74.64
80412;SHT30;69749;42.684;23.360;2023-09-07T04:40:28;19.58;74.95
80412;SHT30;69749;42.684;23.360;2023-09-07T04:43:07;19.52;74.86
80412;SHT30;69749;42.684;23.360;2023-09-07T04:46:12;19.67;74.73
80412;SHT30;69749;42.684;23.360;2023-09-07T04:48:39;19.79;74.39
80412;SHT30;69749;42.684;23.360;2023-09-07T04:51:07;19.80;74.04
80412;SHT30;69749;42.684;23.360;2023-09-07T04:53:35;19.83;73.75
80412;SHT30;69749;42.684;23.360;2023-09-07T04:56:04;19.90;73.67
80412;SHT30;69749;42.684;23.360;2023-09-07T04:58:30;19.93;73.66
80412;SHT30;69749;42.684;23.360;2023-09-07T05:01:09;19.93;73.64
80412;SHT30;69749;42.684;23.360;2023-09-07T05:03:35;19.92;74.03
80412;SHT30;69749;42.684;23.360;2023-09-07T05:06:01;19.97;74.05
80412;SHT30;69749;42.684;23.360;2023-09-07T05:08:28;19.98;73.93
80412;SHT30;69749;42.684;23.360;2023-09-07T05:11:06;20.04;73.91
80412;SHT30;69749;42.684;23.360;2023-09-07T05:14:08;20.10;73.76
80412;SHT30;69749;42.684;23.360;2023-09-07T05:17:15;20.14;73.71
80412;SHT30;69749;42.684;23.360;2023-09-07T05:19:55;20.16;73.71
80412;SHT30;69749;42.684;23.360;2023-09-07T05:23:17;20.18;73.41
80412;SHT30;69749;42.684;23.360;2023-09-07T05:28:45;20.18;73.17
80412;SHT30;69749;42.684;23.360;2023-09-07T05:31:18;20.18;73.35
80412;SHT30;69749;42.684;23.360;2023-09-07T05:33:50;20.24;73.28
80412;SHT30;69749;42.684;23.360;2023-09-07T05:36:17;20.25;72.88
80412;SHT30;69749;42.684;23.360;2023-09-07T05:38:42;20.10;73.03
80412;SHT30;69749;42.684;23.360;2023-09-07T05:41:10;20.10;72.93
80412;SHT30;69749;42.684;23.360;2023-09-07T05:43:38;20.06;72.98
80412;SHT30;69749;42.684;23.360;2023-09-07T05:46:04;20.07;72.90
80412;SHT30;69749;42.684;23.360;2023-09-07T05:48:29;20.07;73.03
80412;SHT30;69749;42.684;23.360;2023-09-07T05:50:54;20.12;72.92
80412;SHT30;69749;42.684;23.360;2023-09-07T05:53:20;20.12;72.70
80412;SHT30;69749;42.684;23.360;2023-09-07T05:55:50;20.12;72.66
80412;SHT30;69749;42.684;23.360;2023-09-07T05:58:15;20.23;72.90
80412;SHT30;69749;42.684;23.360;2023-09-07T06:00:40;20.30;72.90
80412;SHT30;69749;42.684;23.360;2023-09-07T06:03:16;20.37;72.73
80412;SHT30;69749;42.684;23.360;2023-09-07T06:06:07;20.48;72.64
80412;SHT30;69749;42.684;23.360;2023-09-07T06:08:35;20.71;72.56
80412;SHT30;69749;42.684;23.360;2023-09-07T06:11:04;20.85;70.86
80412;SHT30;69749;42.684;23.360;2023-09-07T06:13:30;21.30;70.03
80412;SHT30;69749;42.684;23.360;2023-09-07T06:15:56;21.57;68.54
80412;SHT30;69749;42.684;23.360;2023-09-07T06:18:21;21.92;67.90
80412;SHT30;69749;42.684;23.360;2023-09-07T06:23:22;22.66;63.10
80412;SHT30;69749;42.684;23.360;2023-09-07T06:25:47;23.03;62.63
80412;SHT30;69749;42.684;23.360;2023-09-07T06:28:20;23.21;60.61
80412;SHT30;69749;42.684;23.360;2023-09-07T06:30:48;23.45;60.62
80412;SHT30;69749;42.684;23.360;2023-09-07T06:33:14;23.73;60.09
80412;SHT30;69749;42.684;23.360;2023-09-07T06:35:48;23.32;60.21
80412;SHT30;69749;42.684;23.360;2023-09-07T06:38:20;23.94;59.03
80412;SHT30;69749;42.684;23.360;2023-09-07T06:40:49;24.25;57.52
80412;SHT30;69749;42.684;23.360;2023-09-07T06:43:15;24.45;56.39
80412;SHT30;69749;42.684;23.360;2023-09-07T06:45:40;24.69;55.46
80412;SHT30;69749;42.684;23.360;2023-09-07T06:48:05;24.82;54.85
80412;SHT30;69749;42.684;23.360;2023-09-07T06:51:05;24.99;53.86
80412;SHT30;69749;42.684;23.360;2023-09-07T06:53:31;24.78;53.37
80412;SHT30;69749;42.684;23.360;2023-09-07T06:55:57;24.51;54.32
80412;SHT30;69749;42.684;23.360;2023-09-07T06:58:23;24.57;53.96
80412;SHT30;69749;42.684;23.360;2023-09-07T07:00:48;24.58;53.83
80412;SHT30;69749;42.684;23.360;2023-09-07T07:03:14;24.53;53.68
80412;SHT30;69749;42.684;23.360;2023-09-07T07:05:39;24.96;52.57
80412;SHT30;69749;42.684;23.360;2023-09-07T07:08:05;25.15;51.72
80412;SHT30;69749;42.684;23.360;2023-09-07T07:10:30;25.01;51.86
80412;SHT30;69749;42.684;23.360;2023-09-07T07:12:55;25.46;51.78
80412;SHT30;69749;42.684;23.360;2023-09-07T07:15:21;25.44;51.04
80412;SHT30;69749;42.684;23.360;2023-09-07T07:17:46;25.56;50.13
80412;SHT30;69749;42.684;23.360;2023-09-07T07:20:12;25.57;49.12
80412;SHT30;69749;42.684;23.360;2023-09-07T07:22:37;25.44;48.40
80412;SHT30;69749;42.684;23.360;2023-09-07T07:25:03;25.61;47.91
80412;SHT30;69749;42.684;23.360;2023-09-07T07:27:32;25.37;48.19
80412;SHT30;69749;42.684;23.360;2023-09-07T07:29:57;25.53;47.77
80412;SHT30;69749;42.684;23.360;2023-09-07T07:32:23;25.06;47.60
80412;SHT30;69749;42.684;23.360;2023-09-07T07:34:48;25.12;47.39
80412;SHT30;69749;42.684;23.360;2023-09-07T07:37:14;25.03;47.80
80412;SHT30;69749;42.684;23.360;2023-09-07T07:39:40;25.39;47.96
80412;SHT30;69749;42.684;23.360;2023-09-07T07:42:05;25.60;47.69
80412;SHT30;69749;42.684;23.360;2023-09-07T07:44:31;25.59;47.34
80412;SHT30;69749;42.684;23.360;2023-09-07T07:46:56;25.75;46.71
80412;SHT30;69749;42.684;23.360;2023-09-07T07:49:22;25.81;45.98
80412;SHT30;69749;42.684;23.360;2023-09-07T07:52:05;24.92;47.19
80412;SHT30;69749;42.684;23.360;2023-09-07T07:54:33;25.13;47.90
80412;SHT30;69749;42.684;23.360;2023-09-07T07:56:59;24.43;49.78
80412;SHT30;69749;42.684;23.360;2023-09-07T07:59:24;24.79;49.26
80412;SHT30;69749;42.684;23.360;2023-09-07T08:01:49;24.96;48.92
80412;SHT30;69749;42.684;23.360;2023-09-07T08:04:15;24.99;48.56
80412;SHT30;69749;42.684;23.360;2023-09-07T08:06:40;25.03;47.65
80412;SHT30;69749;42.684;23.360;2023-09-07T08:09:06;25.18;47.61
80412;SHT30;69749;42.684;23.360;2023-09-07T08:11:31;24.81;48.35
80412;SHT30;69749;42.684;23.360;2023-09-07T08:13:56;24.69;49.16
80412;SHT30;69749;42.684;23.360;2023-09-07T08:16:22;24.45;48.62
80412;SHT30;69749;42.684;23.360;2023-09-07T08:18:48;24.23;49.33
80412;SHT30;69749;42.684;23.360;2023-09-07T08:21:14;24.28;49.45
80412;SHT30;69749;42.684;23.360;2023-09-07T08:23:39;24.62;48.94
80412;SHT30;69749;42.684;23.360;2023-09-07T08:26:05;24.96;48.12
80412;SHT30;69749;42.684;23.360;2023-09-07T08:28:31;24.67;47.71
80412;SHT30;69749;42.684;23.360;2023-09-07T08:30:56;24.71;47.86
80412;SHT30;69749;42.684;23.360;2023-09-07T08:33:24;24.81;47.51
80412;SHT30;69749;42.684;23.360;2023-09-07T08:35:55;24.96;47.46
80412;SHT30;69749;42.684;23.360;2023-09-07T08:38:21;25.34;46.69
80412;SHT30;69749;42.684;23.360;2023-09-07T08:40:54;25.57;46.16
80412;SHT30;69749;42.684;23.360;2023-09-07T08:43:23;25.78;45.76
80412;SHT30;69749;42.684;23.360;2023-09-07T08:46:09;25.92;45.22
80412;SHT30;69749;42.684;23.360;2023-09-07T08:48:37;26.11;44.08
80412;SHT30;69749;42.684;23.360;2023-09-07T08:51:03;26.19;43.75
80412;SHT30;69749;42.684;23.360;2023-09-07T08:53:30;26.36;43.65
80412;SHT30;69749;42.684;23.360;2023-09-07T08:55:55;26.38;42.74
80412;SHT30;69749;42.684;23.360;2023-09-07T08:58:20;26.43;42.77
80412;SHT30;69749;42.684;23.360;2023-09-07T09:00:46;26.57;41.73
80412;SHT30;69749;42.684;23.360;2023-09-07T09:03:12;26.50;41.91
80412;SHT30;69749;42.684;23.360;2023-09-07T09:05:39;26.61;41.77
80412;SHT30;69749;42.684;23.360;2023-09-07T09:08:06;26.31;41.29
80412;SHT30;69749;42.684;23.360;2023-09-07T09:10:31;26.31;42.12
80412;SHT30;69749;42.684;23.360;2023-09-07T09:12:57;26.60;42.14
80412;SHT30;69749;42.684;23.360;2023-09-07T09:15:25;26.43;42.34
80412;SHT30;69749;42.684;23.360;2023-09-07T09:17:51;26.53;40.91
80412;SHT30;69749;42.684;23.360;2023-09-07T09:20:24;26.72;40.89
80412;SHT30;69749;42.684;23.360;2023-09-07T09:22:53;26.29;41.47
80412;SHT30;69749;42.684;23.360;2023-09-07T09:25:18;26.48;41.82
80412;SHT30;69749;42.684;23.360;2023-09-07T09:27:44;26.24;41.81
80412;SHT30;69749;42.684;23.360;2023-09-07T09:30:10;26.57;41.64
80412;SHT30;69749;42.684;23.360;2023-09-07T09:32:35;26.72;40.60
80412;SHT30;69749;42.684;23.360;2023-09-07T09:35:01;26.21;41.20
80412;SHT30;69749;42.684;23.360;2023-09-07T09:37:30;26.60;41.24
80412;SHT30;69749;42.684;23.360;2023-09-07T09:39:56;26.66;41.15
80412;SHT30;69749;42.684;23.360;2023-09-07T09:42:22;26.46;40.59
80412;SHT30;69749;42.684;23.360;2023-09-07T09:44:49;26.57;40.98
80412;SHT30;69749;42.684;23.360;2023-09-07T09:47:16;26.72;40.77
80412;SHT30;69749;42.684;23.360;2023-09-07T09:50:06;26.18;41.96
80412;SHT30;69749;42.684;23.360;2023-09-07T09:52:34;26.48;41.41
80412;SHT30;69749;42.684;23.360;2023-09-07T09:55:00;26.18;40.87
80412;SHT30;69749;42.684;23.360;2023-09-07T09:57:26;26.02;41.30
80412;SHT30;69749;42.684;23.360;2023-09-07T09:59:54;26.24;40.91
80412;SHT30;69749;42.684;23.360;2023-09-07T10:02:21;26.32;40.95
80412;SHT30;69749;42.684;23.360;2023-09-07T10:04:47;26.36;40.78
80412;SHT30;69749;42.684;23.360;2023-09-07T10:07:12;26.21;41.11
80412;SHT30;69749;42.684;23.360;2023-09-07T10:09:38;26.28;41.41
80412;SHT30;69749;42.684;23.360;2023-09-07T10:12:04;26.22;41.03
80412;SHT30;69749;42.684;23.360;2023-09-07T10:14:40;25.54;42.70
80412;SHT30;69749;42.684;23.360;2023-09-07T10:17:06;25.85;41.53
80412;SHT30;69749;42.684;23.360;2023-09-07T10:20:04;25.98;41.08
80412;SHT30;69749;42.684;23.360;2023-09-07T10:22:30;26.04;41.34
80412;SHT30;69749;42.684;23.360;2023-09-07T10:25:21;26.06;41.97
80412;SHT30;69749;42.684;23.360;2023-09-07T10:27:47;25.90;40.67
80412;SHT30;69749;42.684;23.360;2023-09-07T10:30:14;25.90;41.16
80412;SHT30;69749;42.684;23.360;2023-09-07T10:32:45;25.95;41.58
80412;SHT30;69749;42.684;23.360;2023-09-07T10:35:18;25.88;41.54
80412;SHT30;69749;42.684;23.360;2023-09-07T10:37:47;25.85;41.51
80412;SHT30;69749;42.684;23.360;2023-09-07T10:40:13;25.95;41.78
80412;SHT30;69749;42.684;23.360;2023-09-07T10:42:51;25.87;41.76
80412;SHT30;69749;42.684;23.360;2023-09-07T10:45:45;25.91;42.71
80412;SHT30;69749;42.684;23.360;2023-09-07T10:48:11;25.94;43.07
80412;SHT30;69749;42.684;23.360;2023-09-07T10:50:47;26.05;41.84
80412;SHT30;69749;42.684;23.360;2023-09-07T10:53:13;26.02;41.56
80412;SHT30;69749;42.684;23.360;2023-09-07T10:55:42;25.98;41.84
80412;SHT30;69749;42.684;23.360;2023-09-07T10:58:08;26.01;42.63
80412;SHT30;69749;42.684;23.360;2023-09-07T11:00:35;26.05;42.51
80412;SHT30;69749;42.684;23.360;2023-09-07T11:03:07;26.09;41.66
80412;SHT30;69749;42.684;23.360;2023-09-07T11:05:34;26.08;41.80
80412;SHT30;69749;42.684;23.360;2023-09-07T11:08:02;26.04;41.68
80412;SHT30;69749;42.684;23.360;2023-09-07T11:10:28;26.04;41.69
80412;SHT30;69749;42.684;23.360;2023-09-07T11:12:56;26.09;41.67
80412;SHT30;69749;42.684;23.360;2023-09-07T11:15:22;26.05;41.76
80412;SHT30;69749;42.684;23.360;2023-09-07T11:17:47;26.02;41.96
80412;SHT30;69749;42.684;23.360;2023-09-07T11:20:12;25.97;42.02
80412;SHT30;69749;42.684;23.360;2023-09-07T11:22:38;25.82;42.31
80412;SHT30;69749;42.684;23.360;2023-09-07T11:25:05;25.82;42.87
80412;SHT30;69749;42.684;23.360;2023-09-07T11:27:33;25.82;43.24
80412;SHT30;69749;42.684;23.360;2023-09-07T11:30:01;25.80;42.99
80412;SHT30;69749;42.684;23.360;2023-09-07T11:32:33;25.77;43.01
80412;SHT30;69749;42.684;23.360;2023-09-07T11:34:59;25.81;43.17
80412;SHT30;69749;42.684;23.360;2023-09-07T11:37:25;25.81;43.23
80412;SHT30;69749;42.684;23.360;2023-09-07T11:39:51;25.74;42.95
80412;SHT30;69749;42.684;23.360;2023-09-07T11:42:17;25.78;42.95
80412;SHT30;69749;42.684;23.360;2023-09-07T11:44:54;25.70;43.21
80412;SHT30;69749;42.684;23.360;2023-09-07T11:47:19;25.73;43.04
80412;SHT30;69749;42.684;23.360;2023-09-07T11:49:45;25.64;43.05
80412;SHT30;69749;42.684;23.360;2023-09-07T11:52:10;25.30;43.65
80412;SHT30;69749;42.684;23.360;2023-09-07T11:54:35;25.34;43.67
80412;SHT30;69749;42.684;23.360;2023-09-07T11:57:02;25.29;43.38
80412;SHT30;69749;42.684;23.360;2023-09-07T11:59:28;25.41;43.75
80412;SHT30;69749;42.684;23.360;2023-09-07T12:02:16;25.41;43.60
80412;SHT30;69749;42.684;23.360;2023-09-07T12:08:11;25.43;43.14
80412;SHT30;69749;42.684;23.360;2023-09-07T12:10:36;25.44;42.55
80412;SHT30;69749;42.684;23.360;2023-09-07T12:13:02;25.40;42.44
80412;SHT30;69749;42.684;23.360;2023-09-07T12:15:27;25.33;42.56
80412;SHT30;69749;42.684;23.360;2023-09-07T12:17:52;25.32;42.86
80412;SHT30;69749;42.684;23.360;2023-09-07T12:20:28;25.32;43.11
80412;SHT30;69749;42.684;23.360;2023-09-07T12:23:07;25.36;42.67
80412;SHT30;69749;42.684;23.360;2023-09-07T12:25:32;25.39;42.64
80412;SHT30;69749;42.684;23.360;2023-09-07T12:27:58;25.34;42.58
80412;SHT30;69749;42.684;23.360;2023-09-07T12:30:23;25.33;42.84
80412;SHT30;69749;42.684;23.360;2023-09-07T12:32:50;25.30;43.19
80412;SHT30;69749;42.684;23.360;2023-09-07T12:35:30;25.18;42.97
80412;SHT30;69749;42.684;23.360;2023-09-07T12:38:48;25.20;43.07
80412;SHT30;69749;42.684;23.360;2023-09-07T12:41:08;25.26;42.96
80412;SHT30;69749;42.684;23.360;2023-09-07T12:43:44;25.27;43.31
80412;SHT30;69749;42.684;23.360;2023-09-07T12:46:09;25.26;43.17
80412;SHT30;69749;42.684;23.360;2023-09-07T12:48:35;25.29;42.58
80412;SHT30;69749;42.684;23.360;2023-09-07T12:51:00;25.32;42.76
80412;SHT30;69749;42.684;23.360;2023-09-07T12:53:26;25.33;42.96
80412;SHT30;69749;42.684;23.360;2023-09-07T12:55:53;25.36;42.90
80412;SHT30;69749;42.684;23.360;2023-09-07T12:58:47;25.24;43.12
80412;SHT30;69749;42.684;23.360;2023-09-07T13:01:37;25.19;43.17
80412;SHT30;69749;42.684;23.360;2023-09-07T13:04:08;25.27;43.26
80412;SHT30;69749;42.684;23.360;2023-09-07T13:06:33;25.32;42.64
80412;SHT30;69749;42.684;23.360;2023-09-07T13:08:58;25.29;42.22
80412;SHT30;69749;42.684;23.360;2023-09-07T13:11:24;25.39;42.42
80412;SHT30;69749;42.684;23.360;2023-09-07T13:13:49;25.44;42.79
80412;SHT30;69749;42.684;23.360;2023-09-07T13:16:29;25.33;41.89
80412;SHT30;69749;42.684;23.360;2023-09-07T13:19:03;25.41;42.12
80412;SHT30;69749;42.684;23.360;2023-09-07T13:21:29;25.03;42.04
80412;SHT30;69749;42.684;23.360;2023-09-07T13:23:54;25.18;42.76
80412;SHT30;69749;42.684;23.360;2023-09-07T13:26:20;25.30;42.32
80412;SHT30;69749;42.684;23.360;2023-09-07T13:28:45;25.37;42.66
80412;SHT30;69749;42.684;23.360;2023-09-07T13:31:10;25.39;42.04
80412;SHT30;69749;42.684;23.360;2023-09-07T13:33:36;25.44;42.31
80412;SHT30;69749;42.684;23.360;2023-09-07T13:36:01;25.43;42.44
80412;SHT30;69749;42.684;23.360;2023-09-07T13:38:27;25.46;42.55
80412;SHT30;69749;42.684;23.360;2023-09-07T13:40:53;25.47;41.68
80412;SHT30;69749;42.684;23.360;2023-09-07T13:43:18;25.49;41.91
80412;SHT30;69749;42.684;23.360;2023-09-07T13:45:44;25.30;43.49
80412;SHT30;69749;42.684;23.360;2023-09-07T13:48:09;25.29;46.15
80412;SHT30;69749;42.684;23.360;2023-09-07T13:50:35;25.24;46.56
80412;SHT30;69749;42.684;23.360;2023-09-07T13:53:00;25.19;45.04
80412;SHT30;69749;42.684;23.360;2023-09-07T13:55:25;25.19;45.01
80412;SHT30;69749;42.684;23.360;2023-09-07T13:57:51;25.18;46.26
80412;SHT30;69749;42.684;23.360;2023-09-07T14:00:16;25.19;44.52
80412;SHT30;69749;42.684;23.360;2023-09-07T14:02:42;25.16;44.39
80412;SHT30;69749;42.684;23.360;2023-09-07T14:05:07;25.18;44.15
80412;SHT30;69749;42.684;23.360;2023-09-07T14:07:33;25.16;44.09
80412;SHT30;69749;42.684;23.360;2023-09-07T14:09:59;25.11;45.09
80412;SHT30;69749;42.684;23.360;2023-09-07T14:12:25;25.08;45.09
80412;SHT30;69749;42.684;23.360;2023-09-07T14:14:52;25.06;43.91
80412;SHT30;69749;42.684;23.360;2023-09-07T14:17:17;25.08;43.60
80412;SHT30;69749;42.684;23.360;2023-09-07T14:19:42;25.05;43.73
80412;SHT30;69749;42.684;23.360;2023-09-07T14:22:08;25.02;43.91
80412;SHT30;69749;42.684;23.360;2023-09-07T14:24:33;25.08;44.08
80412;SHT30;69749;42.684;23.360;2023-09-07T14:26:59;25.11;43.86
80412;SHT30;69749;42.684;23.360;2023-09-07T14:29:24;25.13;43.87
80412;SHT30;69749;42.684;23.360;2023-09-07T14:31:52;25.16;43.41
80412;SHT30;69749;42.684;23.360;2023-09-07T14:34:17;25.19;43.21
80412;SHT30;69749;42.684;23.360;2023-09-07T14:36:42;25.06;43.24
80412;SHT30;69749;42.684;23.360;2023-09-07T14:39:08;25.08;43.33
80412;SHT30;69749;42.684;23.360;2023-09-07T14:41:37;25.11;43.09
80412;SHT30;69749;42.684;23.360;2023-09-07T14:44:03;25.09;42.72
80412;SHT30;69749;42.684;23.360;2023-09-07T14:46:28;25.03;43.24
80412;SHT30;69749;42.684;23.360;2023-09-07T14:48:54;25.05;43.60
80412;SHT30;69749;42.684;23.360;2023-09-07T14:51:21;25.02;43.85
80412;SHT30;69749;42.684;23.360;2023-09-07T14:53:46;24.96;43.96
80412;SHT30;69749;42.684;23.360;2023-09-07T14:56:12;24.92;43.66
80412;SHT30;69749;42.684;23.360;2023-09-07T14:58:38;24.85;43.57
80412;SHT30;69749;42.684;23.360;2023-09-07T15:01:03;24.81;43.57
80412;SHT30;69749;42.684;23.360;2023-09-07T15:03:29;24.76;43.93
80412;SHT30;69749;42.684;23.360;2023-09-07T15:05:54;24.79;43.86
80412;SHT30;69749;42.684;23.360;2023-09-07T15:08:20;24.68;44.17
80412;SHT30;69749;42.684;23.360;2023-09-07T15:10:45;24.64;44.36
80412;SHT30;69749;42.684;23.360;2023-09-07T15:13:11;24.62;44.02
80412;SHT30;69749;42.684;23.360;2023-09-07T15:15:37;24.55;44.31
80412;SHT30;69749;42.684;23.360;2023-09-07T15:18:04;24.61;44.34
80412;SHT30;69749;42.684;23.360;2023-09-07T15:20:30;24.60;44.23
80412;SHT30;69749;42.684;23.360;2023-09-07T15:22:56;24.60;44.41
80412;SHT30;69749;42.684;23.360;2023-09-07T15:25:22;24.54;44.10
80412;SHT30;69749;42.684;23.360;2023-09-07T15:27:47;24.48;44.36
80412;SHT30;69749;42.684;23.360;2023-09-07T15:30:13;24.50;44.40
80412;SHT30;69749;42.684;23.360;2023-09-07T15:32:40;24.51;44.06
80412;SHT30;69749;42.684;23.360;2023-09-07T15:35:07;24.50;44.38
80412;SHT30;69749;42.684;23.360;2023-09-07T15:37:32;24.45;44.34
80412;SHT30;69749;42.684;23.360;2023-09-07T15:40:00;24.34;44.51
80412;SHT30;69749;42.684;23.360;2023-09-07T15:42:26;24.37;45.28